Time;durP1;ratioP1;P1;durP2;ratioP2;P2;SDS_P1;SDS_P2;PMS_P1;PMS_P2;Temp;Humidity;BMP_temperature;BMP_pressure;BME280_temperature;BME280_humidity;BME280_pressure;Samples;Min_cycle;Max_cycle;Signal;HPM_P1;HPM_P2
2022/01/17 00:00:07;;;;;;;23.38;2.72;;;5.90;84.10;;;;;;5129612;27;20075;-70
2022/01/17 00:02:33;;;;;;;15.00;3.08;;;5.90;84.10;;;;;;5126048;27;20555;-70
2022/01/17 00:04:59;;;;;;;14.18;2.53;;;5.90;83.90;;;;;;5129160;27;20134;-71
2022/01/17 00:07:29;;;;;;;14.35;2.72;;;5.80;83.90;;;;;;5129194;27;20045;-71
2022/01/17 00:09:55;;;;;;;23.13;3.35;;;5.70;84.10;;;;;;5129598;28;20054;-70
2022/01/17 00:12:22;;;;;;;17.58;2.60;;;5.70;84.10;;;;;;5128923;28;20130;-70
2022/01/17 00:14:48;;;;;;;23.88;4.22;;;5.70;84.10;;;;;;5110946;28;20055;-71
2022/01/17 00:19:42;;;;;;;18.48;3.13;;;5.50;84.00;;;;;;5129641;28;20035;-71
2022/01/17 00:22:09;;;;;;;16.80;3.47;;;5.40;84.30;;;;;;5128988;28;20039;-71
2022/01/17 00:24:35;;;;;;;17.00;3.58;;;5.40;84.40;;;;;;5129040;28;20031;-71
2022/01/17 00:27:01;;;;;;;21.75;2.95;;;5.30;84.50;;;;;;5129900;28;20047;-71
2022/01/17 00:29:27;;;;;;;20.30;2.85;;;5.30;84.80;;;;;;5129392;28;20058;-71
2022/01/17 00:31:52;;;;;;;27.30;3.60;;;5.30;84.90;;;;;;5128062;28;20035;-70
2022/01/17 00:34:18;;;;;;;20.65;3.75;;;5.20;85.00;;;;;;5129070;28;20498;-70
2022/01/17 00:36:43;;;;;;;26.70;3.28;;;5.20;85.30;;;;;;5129607;28;20039;-70
2022/01/17 00:39:09;;;;;;;17.23;3.53;;;5.10;85.10;;;;;;5128927;27;20495;-70
2022/01/17 00:41:35;;;;;;;26.45;4.25;;;5.10;85.50;;;;;;5130469;27;20075;-70
2022/01/17 00:44:01;;;;;;;22.75;5.72;;;5.10;85.60;;;;;;5132972;27;20031;-71
2022/01/17 00:46:27;;;;;;;16.50;3.47;;;5.10;85.40;;;;;;5133407;27;20047;-71
2022/01/17 00:48:52;;;;;;;24.45;4.75;;;5.00;85.60;;;;;;5131181;27;20092;-71
2022/01/17 00:51:19;;;;;;;21.05;3.10;;;5.10;85.70;;;;;;5133183;27;20134;-71
2022/01/17 00:53:45;;;;;;;18.52;4.85;;;5.10;85.70;;;;;;5133613;27;20523;-71
2022/01/17 00:56:10;;;;;;;19.38;4.38;;;5.10;85.60;;;;;;5114097;27;20154;-71
2022/01/17 00:58:36;;;;;;;16.83;2.63;;;5.10;85.60;;;;;;5113877;27;20035;-71
2022/01/17 01:01:02;;;;;;;25.20;3.53;;;5.10;85.70;;;;;;5113013;28;20044;-71
2022/01/17 01:03:27;;;;;;;18.67;3.10;;;5.10;85.60;;;;;;5129697;27;20035;-70
2022/01/17 01:05:53;;;;;;;20.58;2.78;;;5.00;85.90;;;;;;5133475;27;20200;-71
2022/01/17 01:08:19;;;;;;;24.05;3.20;;;5.10;85.90;;;;;;5133328;27;20031;-71
2022/01/17 01:10:44;;;;;;;24.63;4.30;;;5.10;86.00;;;;;;5132578;27;20073;-70
2022/01/17 01:13:10;;;;;;;23.92;4.30;;;5.10;86.30;;;;;;5132555;27;20114;-71
2022/01/17 01:19:07;;;;;;;20.75;3.20;;;5.20;86.40;;;;;;5132481;27;20126;-71
2022/01/17 01:21:15;;;;;;;20.10;3.80;;;5.20;86.50;;;;;;5106887;27;20103;-71
2022/01/17 01:29:05;;;;;;;24.42;3.67;;;5.30;86.60;;;;;;5118812;27;20710;-71
2022/01/17 01:32:08;;;;;;;21.73;3.55;;;5.30;86.90;;;;;;5131694;27;20145;-70
2022/01/17 01:34:32;;;;;;;13.50;3.45;;;5.30;87.10;;;;;;5118672;27;20046;-70
2022/01/17 01:36:58;;;;;;;24.98;3.53;;;5.30;87.10;;;;;;5132098;27;20180;-71
2022/01/17 01:39:24;;;;;;;19.88;3.83;;;5.30;87.20;;;;;;5097232;27;20527;-71
2022/01/17 01:41:51;;;;;;;28.30;5.25;;;5.30;87.40;;;;;;5113237;27;20130;-71
2022/01/17 01:44:22;;;;;;;25.65;4.90;;;5.30;87.40;;;;;;5132452;27;20130;-71
2022/01/17 01:46:49;;;;;;;22.30;4.07;;;5.30;87.40;;;;;;5113698;27;20039;-71
2022/01/17 01:49:16;;;;;;;15.75;4.60;;;5.30;87.40;;;;;;5131698;27;20082;-71
2022/01/17 01:51:43;;;;;;;24.98;3.80;;;5.30;87.40;;;;;;5131807;27;20054;-71
2022/01/17 01:54:09;;;;;;;27.00;3.92;;;5.30;87.40;;;;;;5132036;27;20442;-71
2022/01/17 01:56:42;;;;;;;21.73;3.30;;;5.30;87.40;;;;;;5131480;27;20039;-71
2022/01/17 01:59:07;;;;;;;22.38;3.92;;;5.30;87.30;;;;;;5131247;27;20487;-71
2022/01/17 02:01:34;;;;;;;18.85;3.45;;;5.20;87.30;;;;;;5131956;27;20043;-71
2022/01/17 02:04:00;;;;;;;19.20;3.17;;;5.30;87.10;;;;;;5131782;27;20130;-71
2022/01/17 02:06:26;;;;;;;26.63;3.95;;;5.40;86.80;;;;;;5131805;27;20152;-71
2022/01/17 02:08:52;;;;;;;19.27;3.13;;;5.30;86.60;;;;;;5096063;27;20668;-71
2022/01/17 02:11:18;;;;;;;27.38;4.55;;;5.30;86.60;;;;;;5131872;27;20530;-71
2022/01/17 02:13:43;;;;;;;37.65;7.70;;;5.30;86.60;;;;;;5131910;27;20047;-71
2022/01/17 02:16:12;;;;;;;24.08;3.47;;;5.30;86.70;;;;;;5131501;27;20039;-71
2022/01/17 02:18:39;;;;;;;22.70;5.28;;;5.20;86.60;;;;;;5130763;27;20107;-71
2022/01/17 02:23:36;;;;;;;22.95;3.83;;;5.30;86.60;;;;;;5112774;27;20051;-71
2022/01/17 02:26:02;;;;;;;24.98;3.63;;;5.20;86.70;;;;;;5131305;27;20039;-70
2022/01/17 02:28:28;;;;;;;15.27;2.85;;;5.20;86.90;;;;;;5112770;27;20532;-70
2022/01/17 02:30:54;;;;;;;22.15;6.30;;;5.20;87.00;;;;;;5131262;27;20038;-70
2022/01/17 02:33:20;;;;;;;27.17;3.35;;;5.20;87.20;;;;;;5130411;27;20629;-71
2022/01/17 02:35:46;;;;;;;24.27;5.53;;;5.10;87.20;;;;;;5110956;27;20065;-70
2022/01/17 02:38:12;;;;;;;23.40;4.32;;;5.20;87.30;;;;;;5130399;27;20058;-71
2022/01/17 02:40:38;;;;;;;20.77;3.10;;;5.10;87.30;;;;;;5112903;27;20035;-70
2022/01/17 02:43:05;;;;;;;24.58;4.05;;;5.20;87.30;;;;;;5130293;27;20064;-71
2022/01/17 02:45:34;;;;;;;21.63;4.93;;;5.10;87.50;;;;;;5112208;27;20051;-71
2022/01/17 02:48:05;;;;;;;14.63;3.22;;;5.10;87.50;;;;;;5130411;27;20046;-71
2022/01/17 02:50:31;;;;;;;19.35;3.72;;;5.10;87.60;;;;;;5130351;27;20131;-70
2022/01/17 02:53:03;;;;;;;24.73;3.50;;;5.10;87.70;;;;;;5130152;27;20443;-71
2022/01/17 02:55:29;;;;;;;30.30;5.03;;;5.10;87.70;;;;;;5112147;27;20372;-70
2022/01/17 02:57:55;;;;;;;19.27;4.25;;;5.10;87.80;;;;;;5130308;27;20035;-70
2022/01/17 03:00:21;;;;;;;21.00;3.40;;;5.20;87.70;;;;;;5129661;27;20039;-70
2022/01/17 03:02:49;;;;;;;23.85;4.20;;;5.20;87.70;;;;;;5094303;27;20504;-70
2022/01/17 03:05:19;;;;;;;14.18;3.80;;;5.20;87.70;;;;;;5128692;27;20461;-70
2022/01/17 03:07:46;;;;;;;17.25;3.10;;;5.30;87.60;;;;;;5128277;27;20476;-70
2022/01/17 03:10:28;;;;;;;15.30;4.07;;;5.30;87.60;;;;;;5129642;27;20127;-71
2022/01/17 03:13:04;;;;;;;15.25;2.97;;;5.30;87.80;;;;;;5111309;27;20054;-71
2022/01/17 03:15:30;;;;;;;20.60;3.40;;;5.30;87.70;;;;;;5130286;27;20054;-71
2022/01/17 03:17:55;;;;;;;21.63;4.15;;;5.40;87.80;;;;;;5129710;27;20043;-71
2022/01/17 03:20:21;;;;;;;16.33;3.05;;;5.40;87.80;;;;;;5129135;27;20459;-71
2022/01/17 03:22:47;;;;;;;19.05;3.63;;;5.50;87.80;;;;;;5130514;27;20102;-71
2022/01/17 03:25:12;;;;;;;21.40;3.03;;;5.60;87.60;;;;;;5130861;27;20047;-71
2022/01/17 03:27:38;;;;;;;14.30;3.28;;;5.60;87.60;;;;;;5129624;27;20099;-70
2022/01/17 03:30:05;;;;;;;18.42;3.00;;;5.60;87.80;;;;;;5130004;27;20119;-71
2022/01/17 03:32:30;;;;;;;16.35;2.95;;;5.70;87.70;;;;;;5111553;27;20403;-70
2022/01/17 03:34:56;;;;;;;36.03;4.65;;;5.70;87.40;;;;;;5129961;27;20031;-70
2022/01/17 03:37:22;;;;;;;12.50;3.15;;;5.80;87.40;;;;;;5128851;27;20050;-70
2022/01/17 03:39:48;;;;;;;18.10;4.60;;;5.70;87.60;;;;;;5130736;27;20636;-71
2022/01/17 03:42:14;;;;;;;15.23;2.97;;;5.70;87.70;;;;;;5128939;27;20134;-70
2022/01/17 03:44:39;;;;;;;20.17;3.78;;;5.70;87.70;;;;;;5129552;27;20134;-71
2022/01/17 03:47:05;;;;;;;20.00;3.53;;;5.80;87.80;;;;;;5129967;27;20128;-70
2022/01/17 03:49:31;;;;;;;21.95;3.33;;;5.80;87.80;;;;;;5130030;27;20499;-71
2022/01/17 03:51:57;;;;;;;21.30;3.30;;;5.80;87.70;;;;;;5094356;27;20407;-71
2022/01/17 03:54:23;;;;;;;13.38;3.38;;;5.80;87.70;;;;;;5129237;27;20042;-71
2022/01/17 03:56:48;;;;;;;17.40;3.40;;;5.80;87.80;;;;;;5129705;27;20078;-71
2022/01/17 03:59:14;;;;;;;24.85;6.65;;;5.90;87.70;;;;;;5112084;27;20051;-71
2022/01/17 04:01:40;;;;;;;13.93;3.15;;;5.80;87.70;;;;;;5129606;27;20130;-71
2022/01/17 04:04:06;;;;;;;20.90;4.13;;;5.90;87.70;;;;;;5129374;27;20170;-71
2022/01/17 04:06:33;;;;;;;24.13;5.05;;;5.90;87.80;;;;;;5111226;28;20491;-71
2022/01/17 04:08:58;;;;;;;13.27;2.72;;;5.80;87.90;;;;;;5128850;27;20050;-70
2022/01/17 04:11:24;;;;;;;22.55;3.20;;;6.00;87.90;;;;;;5129673;28;20070;-70
2022/01/17 04:13:50;;;;;;;21.92;2.97;;;5.90;88.00;;;;;;5128961;28;20429;-71
2022/01/17 04:16:15;;;;;;;18.75;3.20;;;6.00;88.00;;;;;;5094752;27;20047;-71
2022/01/17 04:18:42;;;;;;;23.08;3.83;;;6.10;87.90;;;;;;5132297;27;20038;-71
2022/01/17 04:21:08;;;;;;;17.80;2.92;;;6.00;88.10;;;;;;5098668;27;20043;-70
2022/01/17 04:23:33;;;;;;;16.60;4.28;;;6.10;88.00;;;;;;5133044;27;20038;-71
2022/01/17 04:25:59;;;;;;;19.02;4.03;;;6.10;88.10;;;;;;5134177;27;20652;-70
2022/01/17 04:28:24;;;;;;;15.20;3.33;;;6.10;88.10;;;;;;5132951;27;20043;-69
2022/01/17 04:30:50;;;;;;;20.40;4.60;;;6.10;88.30;;;;;;5133979;27;20088;-70
2022/01/17 04:33:16;;;;;;;21.88;4.22;;;6.10;88.50;;;;;;5131065;27;20403;-70
2022/01/17 04:35:43;;;;;;;27.65;4.80;;;6.10;88.50;;;;;;5132091;27;20131;-71
2022/01/17 04:38:15;;;;;;;18.02;4.28;;;6.10;88.60;;;;;;5133549;27;20031;-71
2022/01/17 04:40:44;;;;;;;21.85;4.07;;;6.10;88.60;;;;;;5133631;27;20039;-71
2022/01/17 04:45:55;;;;;;;19.55;3.83;;;6.20;88.80;;;;;;5132974;27;20521;-71
2022/01/17 04:48:21;;;;;;;23.98;3.83;;;6.20;88.70;;;;;;5132199;27;20051;-71
2022/01/17 04:50:47;;;;;;;19.08;5.70;;;6.20;88.80;;;;;;5132734;27;20043;-71
2022/01/17 04:53:17;;;;;;;21.65;4.40;;;6.20;88.80;;;;;;5114880;27;20055;-71
2022/01/17 04:55:43;;;;;;;19.45;4.00;;;6.20;88.90;;;;;;5133006;27;20067;-70
2022/01/17 04:58:08;;;;;;;18.85;4.32;;;6.30;89.10;;;;;;5124507;27;20031;-71
2022/01/17 05:00:34;;;;;;;26.58;6.05;;;6.30;88.90;;;;;;5131873;27;20039;-71
2022/01/17 05:02:59;;;;;;;25.55;5.05;;;6.30;88.90;;;;;;5131924;27;20051;-71
2022/01/17 05:05:25;;;;;;;27.15;4.82;;;6.30;88.90;;;;;;5132760;27;20039;-71
2022/01/17 05:07:52;;;;;;;19.85;4.32;;;6.40;88.90;;;;;;5126734;27;20376;-70
2022/01/17 05:10:21;;;;;;;19.65;6.03;;;6.40;88.80;;;;;;5132168;27;20077;-70
2022/01/17 05:12:47;;;;;;;21.98;3.50;;;6.40;89.00;;;;;;5124496;27;20055;-70
2022/01/17 05:15:52;;;;;;;26.65;7.57;;;6.40;88.80;;;;;;5117258;27;20055;-70
2022/01/17 05:18:24;;;;;;;22.15;3.92;;;6.30;88.90;;;;;;5118535;27;20487;-70
2022/01/17 05:20:50;;;;;;;23.75;4.28;;;6.40;88.80;;;;;;5132030;27;20047;-69
2022/01/17 05:23:16;;;;;;;24.90;4.90;;;6.30;88.70;;;;;;5133052;27;20574;-70
2022/01/17 05:25:42;;;;;;;24.15;5.90;;;6.40;88.90;;;;;;5131879;27;20127;-69
2022/01/17 05:28:07;;;;;;;20.30;4.18;;;6.30;88.90;;;;;;5128164;27;20070;-69
2022/01/17 05:30:33;;;;;;;27.15;4.63;;;6.30;89.10;;;;;;5113359;27;20096;-70
2022/01/17 05:32:59;;;;;;;20.90;5.97;;;6.30;89.20;;;;;;5128980;27;20035;-69
2022/01/17 05:35:25;;;;;;;22.98;5.57;;;6.20;89.30;;;;;;5123335;27;20058;-70
2022/01/17 05:37:51;;;;;;;31.40;6.10;;;6.30;89.40;;;;;;5124868;27;20044;-70
2022/01/17 05:40:17;;;;;;;30.10;5.50;;;6.40;89.40;;;;;;5122698;27;20425;-69
2022/01/17 05:42:43;;;;;;;17.10;4.90;;;6.30;89.60;;;;;;5115024;27;20036;-69
2022/01/17 05:45:10;;;;;;;28.73;5.15;;;6.30;89.90;;;;;;5120391;27;20044;-71
2022/01/17 05:47:36;;;;;;;30.35;6.15;;;6.50;89.60;;;;;;5115842;27;20105;-71
2022/01/17 05:50:04;;;;;;;29.17;6.97;;;6.50;89.60;;;;;;5126596;27;20038;-71
2022/01/17 05:52:31;;;;;;;29.20;6.63;;;6.40;89.50;;;;;;5121379;27;20044;-70
2022/01/17 05:54:57;;;;;;;21.52;6.43;;;6.40;89.40;;;;;;5130657;27;20043;-71
2022/01/17 05:57:24;;;;;;;21.23;4.80;;;6.50;89.30;;;;;;5124346;27;20039;-70
2022/01/17 05:59:49;;;;;;;19.77;5.10;;;6.50;89.20;;;;;;5124742;27;20043;-71
2022/01/17 06:02:15;;;;;;;25.60;5.18;;;6.50;89.30;;;;;;5114649;27;20058;-70
2022/01/17 06:04:41;;;;;;;27.60;5.38;;;6.50;89.30;;;;;;5121301;27;20045;-70
2022/01/17 06:07:06;;;;;;;28.02;4.68;;;6.60;89.10;;;;;;5124131;27;20435;-70
2022/01/17 06:09:32;;;;;;;22.05;5.00;;;6.60;89.30;;;;;;5121768;27;20508;-71
2022/01/17 06:11:58;;;;;;;26.80;5.10;;;6.60;89.40;;;;;;5101199;27;20051;-70
2022/01/17 06:14:24;;;;;;;24.10;5.38;;;6.60;89.10;;;;;;5081820;27;20047;-70
2022/01/17 06:16:50;;;;;;;21.27;5.55;;;6.60;89.30;;;;;;5096755;27;20047;-70
2022/01/17 06:19:17;;;;;;;30.75;6.18;;;6.60;89.50;;;;;;5116687;27;20042;-71
2022/01/17 06:21:43;;;;;;;25.17;4.47;;;6.60;89.60;;;;;;5111372;27;20053;-71
2022/01/17 06:24:09;;;;;;;32.13;7.53;;;6.60;89.70;;;;;;5115137;27;20042;-70
2022/01/17 06:26:40;;;;;;;23.75;5.00;;;6.60;89.70;;;;;;5105259;27;20223;-70
2022/01/17 06:29:07;;;;;;;24.63;4.35;;;6.60;89.70;;;;;;5106626;27;20027;-70
2022/01/17 06:31:35;;;;;;;32.58;7.38;;;6.60;89.80;;;;;;5124697;27;20082;-69
2022/01/17 06:34:01;;;;;;;24.25;5.03;;;6.60;89.80;;;;;;5119158;27;20054;-70
2022/01/17 06:36:27;;;;;;;25.33;5.75;;;6.60;89.80;;;;;;5121555;27;20400;-71
2022/01/17 06:38:52;;;;;;;23.90;4.97;;;6.60;90.10;;;;;;5129829;27;20047;-70
2022/01/17 06:41:19;;;;;;;29.48;5.25;;;6.60;89.90;;;;;;5129209;27;20043;-71
2022/01/17 06:43:46;;;;;;;28.40;5.10;;;6.60;89.90;;;;;;5102583;27;20051;-69
2022/01/17 06:46:12;;;;;;;23.85;4.50;;;6.60;89.90;;;;;;5120547;27;20488;-68
2022/01/17 06:48:37;;;;;;;38.70;4.72;;;6.60;89.90;;;;;;5113265;27;20028;-70
2022/01/17 06:51:03;;;;;;;29.60;4.47;;;6.60;89.90;;;;;;5121764;27;20043;-70
2022/01/17 06:53:29;;;;;;;35.58;5.68;;;6.60;90.00;;;;;;5129477;27;20070;-73
2022/01/17 06:55:56;;;;;;;33.20;5.72;;;6.70;90.30;;;;;;5130409;27;20077;-70
2022/01/17 06:58:22;;;;;;;37.78;6.93;;;6.70;90.30;;;;;;5128048;27;20050;-69
2022/01/17 07:00:48;;;;;;;27.38;5.97;;;6.70;90.10;;;;;;5127987;27;20134;-70
2022/01/17 07:03:14;;;;;;;36.40;5.65;;;6.70;90.40;;;;;;5129712;27;20118;-70
2022/01/17 07:05:40;;;;;;;34.05;5.38;;;6.70;90.20;;;;;;5131048;27;20415;-71
2022/01/17 07:08:06;;;;;;;37.13;5.75;;;6.70;90.40;;;;;;5103088;28;20195;-71
2022/01/17 07:10:32;;;;;;;38.50;5.57;;;6.80;90.30;;;;;;5109991;28;20079;-70
2022/01/17 07:12:57;;;;;;;38.63;8.88;;;6.70;90.20;;;;;;5127033;27;20047;-69
2022/01/17 07:15:23;;;;;;;32.63;5.15;;;6.70;90.40;;;;;;5082940;28;20047;-71
2022/01/17 07:17:49;;;;;;;35.88;6.47;;;6.80;90.50;;;;;;5101961;27;20074;-71
2022/01/17 07:20:15;;;;;;;47.08;7.03;;;6.70;90.50;;;;;;5130056;27;20054;-70
2022/01/17 07:22:41;;;;;;;32.42;6.18;;;6.70;90.50;;;;;;5103247;27;20051;-70
2022/01/17 07:25:07;;;;;;;32.75;6.18;;;6.80;90.50;;;;;;5114592;27;20044;-72
2022/01/17 07:27:34;;;;;;;32.13;7.40;;;6.80;90.50;;;;;;5125535;27;20051;-67
2022/01/17 07:30:00;;;;;;;36.30;5.47;;;6.80;90.40;;;;;;5138075;27;20411;-67
2022/01/17 07:32:26;;;;;;;31.02;5.85;;;6.80;90.40;;;;;;5112301;27;20505;-67
2022/01/17 07:34:52;;;;;;;30.63;5.35;;;6.90;90.30;;;;;;5112116;27;20050;-66
2022/01/17 07:37:19;;;;;;;42.35;5.78;;;6.90;90.20;;;;;;5128944;27;20085;-67
2022/01/17 07:39:44;;;;;;;33.05;5.78;;;6.90;90.30;;;;;;5118284;27;20040;-68
2022/01/17 07:42:10;;;;;;;35.67;5.57;;;6.90;90.40;;;;;;5116348;27;20051;-67
2022/01/17 07:44:39;;;;;;;39.42;5.75;;;6.90;90.20;;;;;;5130152;27;20395;-67
2022/01/17 07:47:06;;;;;;;43.50;8.95;;;7.00;90.20;;;;;;5129382;27;20054;-67
2022/01/17 07:49:32;;;;;;;30.60;5.72;;;7.10;90.00;;;;;;5129874;27;20543;-67
2022/01/17 07:52:00;;;;;;;40.60;7.35;;;7.00;89.90;;;;;;5111478;27;20039;-68
2022/01/17 07:54:28;;;;;;;27.60;5.03;;;7.00;90.10;;;;;;5129848;27;20456;-68
2022/01/17 07:56:54;;;;;;;31.73;7.28;;;7.00;90.10;;;;;;5110681;27;20043;-68
2022/01/17 07:59:20;;;;;;;29.27;4.93;;;7.00;90.30;;;;;;5124288;27;20491;-68
2022/01/17 08:01:45;;;;;;;33.30;5.80;;;7.00;90.10;;;;;;5129625;27;20045;-68
2022/01/17 08:04:11;;;;;;;40.17;7.45;;;7.00;90.20;;;;;;5128654;27;20047;-68
2022/01/17 08:06:39;;;;;;;39.33;6.63;;;7.00;90.20;;;;;;5128681;27;20051;-67
2022/01/17 08:09:13;;;;;;;31.70;5.50;;;7.00;90.20;;;;;;5128384;27;20122;-68
2022/01/17 08:11:39;;;;;;;41.67;5.88;;;7.10;90.20;;;;;;5118376;27;20075;-68
2022/01/17 08:14:05;;;;;;;34.92;5.68;;;7.10;90.20;;;;;;5119517;27;20103;-69
2022/01/17 08:16:30;;;;;;;40.45;6.20;;;7.10;90.10;;;;;;5118551;28;20066;-68
2022/01/17 08:18:56;;;;;;;25.48;4.95;;;7.20;89.90;;;;;;5130085;28;20047;-68
2022/01/17 08:21:22;;;;;;;44.67;8.25;;;7.20;90.00;;;;;;5129768;28;20050;-68
2022/01/17 08:23:49;;;;;;;35.90;5.47;;;7.10;90.10;;;;;;5129704;28;20407;-69
2022/01/17 08:26:14;;;;;;;31.75;8.52;;;7.20;90.00;;;;;;5129724;28;20126;-68
2022/01/17 08:28:41;;;;;;;34.03;5.05;;;7.20;90.00;;;;;;5126666;28;20567;-68
2022/01/17 08:31:07;;;;;;;42.70;6.60;;;7.30;90.10;;;;;;5111678;28;21338;-68
2022/01/17 08:33:34;;;;;;;40.05;7.40;;;7.30;90.10;;;;;;5128609;27;20039;-68
2022/01/17 08:35:59;;;;;;;31.88;5.50;;;7.30;89.90;;;;;;5128941;28;20051;-68
2022/01/17 08:38:28;;;;;;;37.17;6.72;;;7.40;90.00;;;;;;5129908;28;20051;-68
2022/01/17 08:40:55;;;;;;;41.95;6.95;;;7.40;89.80;;;;;;5129950;28;20043;-68
2022/01/17 08:43:21;;;;;;;35.33;7.70;;;7.40;89.80;;;;;;5111519;28;20047;-68
2022/01/17 08:45:48;;;;;;;34.88;6.00;;;7.50;89.60;;;;;;5129185;28;20492;-69
2022/01/17 08:48:14;;;;;;;33.10;5.93;;;7.50;89.60;;;;;;5130051;28;20043;-68
2022/01/17 08:50:41;;;;;;;33.67;5.10;;;7.50;89.60;;;;;;5129016;28;20558;-68
2022/01/17 08:53:10;;;;;;;36.95;6.70;;;7.50;89.40;;;;;;5129386;28;20503;-68
2022/01/17 08:55:36;;;;;;;28.67;5.15;;;7.50;89.30;;;;;;5129182;28;20043;-68
2022/01/17 08:58:03;;;;;;;24.90;5.85;;;7.60;89.50;;;;;;5129617;28;20567;-68
2022/01/17 09:00:33;;;;;;;40.65;7.50;;;7.50;89.50;;;;;;5128602;28;20126;-68
2022/01/17 09:03:01;;;;;;;39.00;6.60;;;7.60;89.40;;;;;;5113808;27;20047;-68
2022/01/17 09:05:28;;;;;;;41.88;6.43;;;7.60;89.50;;;;;;5131491;27;20111;-69
2022/01/17 09:07:54;;;;;;;43.72;8.88;;;7.70;89.20;;;;;;5132979;27;20122;-66
2022/01/17 09:10:19;;;;;;;36.33;5.55;;;7.70;89.00;;;;;;5132947;27;20142;-69
2022/01/17 09:12:45;;;;;;;41.60;5.10;;;7.80;88.70;;;;;;5114627;27;20090;-69
2022/01/17 09:15:11;;;;;;;33.85;6.00;;;7.90;88.50;;;;;;5132218;27;20499;-68
2022/01/17 09:17:37;;;;;;;35.92;6.25;;;7.90;88.50;;;;;;5132813;27;20042;-68
2022/01/17 09:20:04;;;;;;;39.50;6.97;;;8.00;88.20;;;;;;5132641;27;20126;-68
2022/01/17 09:22:30;;;;;;;29.95;5.60;;;8.00;88.10;;;;;;5132513;27;20039;-68
2022/01/17 09:24:56;;;;;;;33.45;5.70;;;8.00;87.60;;;;;;5115044;27;20628;-68
2022/01/17 09:27:21;;;;;;;40.28;6.32;;;8.00;87.80;;;;;;5131676;27;20121;-69
2022/01/17 09:29:47;;;;;;;45.72;6.10;;;8.10;87.80;;;;;;5133002;27;20453;-68
2022/01/17 09:32:14;;;;;;;34.97;6.22;;;8.10;87.70;;;;;;5132179;27;20039;-68
2022/01/17 09:34:42;;;;;;;35.92;6.25;;;8.20;87.50;;;;;;5129619;27;20096;-68
2022/01/17 09:37:09;;;;;;;36.90;5.95;;;8.20;87.70;;;;;;5132479;27;20046;-68
2022/01/17 09:39:35;;;;;;;31.70;5.13;;;8.20;87.30;;;;;;5113921;27;20074;-68
2022/01/17 09:42:02;;;;;;;36.45;5.63;;;8.20;87.50;;;;;;5132676;27;20118;-68
2022/01/17 09:44:27;;;;;;;30.52;6.85;;;8.30;87.30;;;;;;5129171;27;20031;-68
2022/01/17 09:46:56;;;;;;;51.33;7.13;;;8.30;87.30;;;;;;5127142;27;20088;-69
2022/01/17 09:49:34;;;;;;;47.75;8.60;;;8.30;87.20;;;;;;5131566;27;20043;-68
2022/01/17 09:52:13;;;;;;;42.47;7.72;;;8.50;87.10;;;;;;5109342;27;20158;-69
2022/01/17 09:54:42;;;;;;;39.40;6.05;;;8.50;86.90;;;;;;5113000;27;20036;-69
2022/01/17 09:57:11;;;;;;;31.85;6.72;;;8.50;86.90;;;;;;5130501;27;20114;-68
2022/01/17 09:59:40;;;;;;;40.60;7.40;;;8.60;86.90;;;;;;5130310;27;20062;-68
2022/01/17 10:02:07;;;;;;;32.17;5.93;;;8.60;86.70;;;;;;5130318;27;20035;-67
2022/01/17 10:04:34;;;;;;;46.15;7.47;;;8.60;86.50;;;;;;5113825;27;20047;-68
2022/01/17 10:07:01;;;;;;;37.42;7.25;;;8.60;86.50;;;;;;5130813;27;20046;-68
2022/01/17 10:09:28;;;;;;;39.58;6.65;;;8.60;86.30;;;;;;5130798;27;20035;-67
2022/01/17 10:12:14;;;;;;;39.25;6.43;;;8.70;86.40;;;;;;5130223;27;20089;-67
2022/01/17 10:14:45;;;;;;;45.28;6.53;;;8.70;86.10;;;;;;5111021;27;20054;-67
2022/01/17 10:17:16;;;;;;;38.85;6.55;;;8.80;86.30;;;;;;5128615;27;20074;-68
2022/01/17 10:19:43;;;;;;;39.08;7.07;;;8.80;86.40;;;;;;5131060;27;20051;-68
2022/01/17 10:22:24;;;;;;;40.40;8.13;;;8.90;85.80;;;;;;5115953;27;20931;-68
2022/01/17 10:25:02;;;;;;;40.10;7.50;;;8.90;86.20;;;;;;5130581;27;20099;-68
2022/01/17 10:28:07;;;;;;;36.50;8.30;;;9.00;85.90;;;;;;5112630;27;20043;-68
2022/01/17 10:30:34;;;;;;;44.55;8.35;;;9.10;85.70;;;;;;5127805;27;20316;-67
2022/01/17 10:35:51;;;;;;;43.92;7.53;;;9.10;85.50;;;;;;5111853;27;20051;-67
2022/01/17 10:38:21;;;;;;;40.88;9.30;;;9.10;85.40;;;;;;5131518;27;20054;-68
2022/01/17 10:41:02;;;;;;;43.40;7.35;;;9.20;85.50;;;;;;5130907;27;20039;-68
2022/01/17 10:43:34;;;;;;;50.25;8.57;;;9.20;85.30;;;;;;5130576;27;20186;-68
2022/01/17 10:46:04;;;;;;;41.72;6.53;;;9.20;85.30;;;;;;5111120;27;20395;-68
2022/01/17 10:48:34;;;;;;;40.00;7.13;;;9.30;85.30;;;;;;5130895;27;20039;-67
2022/01/17 10:51:01;;;;;;;45.20;7.55;;;9.30;85.20;;;;;;5111379;27;20491;-67
2022/01/17 10:53:27;;;;;;;47.83;7.68;;;9.20;85.40;;;;;;5127362;27;20118;-67
2022/01/17 10:55:55;;;;;;;50.83;7.13;;;9.30;85.10;;;;;;5124694;27;20451;-67
2022/01/17 10:58:25;;;;;;;52.22;9.02;;;9.30;85.30;;;;;;5129993;27;20081;-67
2022/01/17 11:01:00;;;;;;;37.22;10.05;;;9.30;85.40;;;;;;5094921;27;20096;-66
2022/01/17 11:03:28;;;;;;;36.97;6.28;;;9.20;85.70;;;;;;5130058;27;20070;-66
2022/01/17 11:05:57;;;;;;;53.33;9.50;;;9.30;85.50;;;;;;5130475;27;20046;-67
2022/01/17 11:08:26;;;;;;;47.25;8.05;;;9.30;85.60;;;;;;5126633;27;20047;-67
2022/01/17 11:10:55;;;;;;;57.10;9.80;;;9.30;85.80;;;;;;5129356;27;20180;-66
2022/01/17 11:13:21;;;;;;;48.88;10.35;;;9.30;85.80;;;;;;5104854;28;20063;-72
2022/01/17 11:15:52;;;;;;;55.58;9.35;;;9.20;85.70;;;;;;5090672;27;20047;-68
2022/01/17 11:18:25;;;;;;;57.67;8.57;;;9.30;85.70;;;;;;5129236;27;20078;-68
2022/01/17 11:20:54;;;;;;;50.85;8.88;;;9.20;85.90;;;;;;5104942;27;20066;-68
2022/01/17 11:23:21;;;;;;;51.53;8.52;;;9.30;85.90;;;;;;5093569;27;20046;-67
2022/01/17 11:25:52;;;;;;;41.60;7.88;;;9.30;85.80;;;;;;5128666;27;20076;-67
2022/01/17 11:28:22;;;;;;;47.57;7.57;;;9.40;85.60;;;;;;5129251;27;20135;-66
2022/01/17 11:30:49;;;;;;;47.97;7.78;;;9.40;85.70;;;;;;5126275;27;20084;-67
2022/01/17 11:33:15;;;;;;;60.17;9.45;;;9.40;85.50;;;;;;5128842;27;20047;-68
2022/01/17 11:35:43;;;;;;;60.97;10.75;;;9.40;86.00;;;;;;5129447;27;20061;-69
2022/01/17 11:38:15;;;;;;;44.40;8.35;;;9.40;85.90;;;;;;5129144;27;20047;-68
2022/01/17 11:40:42;;;;;;;52.60;9.55;;;9.40;85.70;;;;;;5128973;27;20039;-69
2022/01/17 11:43:23;;;;;;;45.38;7.88;;;9.40;86.10;;;;;;5091439;28;20165;-69
2022/01/17 11:45:53;;;;;;;48.55;10.38;;;9.50;85.80;;;;;;5125963;27;20040;-69
2022/01/17 11:48:24;;;;;;;47.63;9.15;;;9.50;85.80;;;;;;5128333;27;20054;-70
2022/01/17 11:50:53;;;;;;;47.33;9.48;;;9.40;85.80;;;;;;5130366;27;20050;-69
2022/01/17 11:53:18;;;;;;;61.22;12.10;;;9.50;86.00;;;;;;5109717;28;20135;-68
2022/01/17 11:55:49;;;;;;;56.75;10.38;;;9.50;85.70;;;;;;5107612;27;20046;-69
2022/01/17 11:58:26;;;;;;;46.33;8.63;;;9.60;85.70;;;;;;5129412;27;20126;-69
2022/01/17 12:01:01;;;;;;;51.72;9.70;;;9.60;85.60;;;;;;5125163;27;20048;-69
2022/01/17 12:03:49;;;;;;;71.18;12.98;;;9.50;85.70;;;;;;5128756;27;20068;-69
2022/01/17 12:06:26;;;;;;;59.30;10.98;;;9.60;85.50;;;;;;5128178;27;20075;-69
2022/01/17 12:09:20;;;;;;;47.50;8.23;;;9.50;85.80;;;;;;5129812;27;20092;-69
2022/01/17 12:12:10;;;;;;;58.80;11.05;;;9.60;85.60;;;;;;5118921;27;20043;-68
2022/01/17 12:14:44;;;;;;;47.42;8.57;;;9.60;85.60;;;;;;5129108;27;20079;-69
2022/01/17 12:17:18;;;;;;;60.55;11.90;;;9.60;85.80;;;;;;5129365;28;20100;-68
2022/01/17 12:20:09;;;;;;;60.42;9.48;;;9.60;85.30;;;;;;5111724;28;20187;-69
2022/01/17 12:22:43;;;;;;;53.45;10.27;;;9.70;85.40;;;;;;5107246;28;20081;-69
2022/01/17 12:25:25;;;;;;;60.63;11.38;;;9.70;85.40;;;;;;5110420;28;20552;-69
2022/01/17 12:28:16;;;;;;;56.33;9.03;;;9.60;85.60;;;;;;5127117;28;20046;-70
2022/01/17 12:30:43;;;;;;;64.15;11.13;;;9.70;85.60;;;;;;5119283;28;20473;-69
2022/01/17 12:33:39;;;;;;;69.97;10.75;;;9.60;85.30;;;;;;5129257;28;20045;-69
2022/01/17 12:36:27;;;;;;;53.03;10.43;;;9.70;85.40;;;;;;5105569;28;20047;-68
2022/01/17 12:39:17;;;;;;;65.68;9.57;;;9.60;85.50;;;;;;5130796;27;20403;-67
2022/01/17 12:41:44;;;;;;;85.80;12.40;;;9.80;85.10;;;;;;5133487;27;20061;-68
2022/01/17 12:44:22;;;;;;;50.25;8.77;;;9.60;85.30;;;;;;5119318;27;20060;-68
2022/01/17 12:46:53;;;;;;;62.10;11.23;;;9.60;85.40;;;;;;5132678;27;20099;-66
2022/01/17 12:49:20;;;;;;;57.65;9.48;;;9.60;85.30;;;;;;5077204;28;20071;-68
2022/01/17 12:51:55;;;;;;;62.40;11.25;;;9.60;85.30;;;;;;5108551;27;20431;-67
2022/01/17 12:54:24;;;;;;;53.42;9.52;;;9.60;85.60;;;;;;5133281;27;20047;-67
2022/01/17 12:56:55;;;;;;;52.80;11.32;;;9.60;85.60;;;;;;5122182;27;20043;-68
2022/01/17 12:59:22;;;;;;;40.65;8.48;;;9.70;85.70;;;;;;5102058;27;20043;-67
2022/01/17 13:02:01;;;;;;;52.10;7.88;;;9.70;85.60;;;;;;5105448;27;20465;-68
2022/01/17 13:04:31;;;;;;;57.78;9.73;;;9.60;85.80;;;;;;5108507;27;20069;-68
2022/01/17 13:06:57;;;;;;;54.95;9.88;;;9.70;85.70;;;;;;5112464;27;20047;-66
2022/01/17 13:09:24;;;;;;;54.45;10.27;;;9.60;86.00;;;;;;5131247;27;20407;-66